Home   Weather   Norway   Tromsø   Past weeks
Flag for Norway

Past Weather in Tromsø, Norway — May 2018

Currently: 14 °F. Passing clouds. (Weather station: Tromso / Langnes, Norway). See more current weather

May 2018 Weather in Tromsø — Graph

°F

High & Low Weather Summary for May 2018

 TemperatureHumidityPressure
High68 °F (May 10, 2:20 pm)100% (May 12, 5:50 am)30.48 "Hg (May 12, 5:50 am)
Low32 °F (May 1, 12:20 am)31% (May 28, 10:50 am)29.56 "Hg (May 6, 7:50 am)
Average46 °F68%30.08 "Hg
* Reported May 1 12:20 am — May 31 11:50 pm, Tromsø. Weather by CustomWeather, © 2021

Note: Actual official high and low records may vary slightly from our data, if they occured in-between our weather recording intervals... More about our weather records

Tromsø Weather History for May 1, 2018

Scroll right to see more
 ConditionsComfort  
Time TempWeatherWind HumidityBarometerVisibility
12:20 am
Tue, May 1
32 °FPassing clouds.2 mph87%30.12 "HgN/A
12:50 am32 °FPassing clouds.No wind87%30.12 "HgN/A
1:50 am32 °FPassing clouds.2 mph93%30.12 "HgN/A
2:50 am32 °FPassing clouds.2 mph87%30.12 "HgN/A
3:50 am32 °FPassing clouds.2 mph80%30.12 "HgN/A
4:50 am32 °FPassing clouds.3 mph80%30.12 "HgN/A
5:50 am32 °FPassing clouds.5 mph87%30.12 "HgN/A
6:20 am34 °FPassing clouds.5 mph81%30.12 "HgN/A
6:50 am34 °FPassing clouds.2 mph81%30.12 "HgN/A
7:50 am36 °FSunny.5 mph75%30.09 "Hg10 mi
8:50 am36 °FSunny.5 mph75%30.09 "Hg10 mi
9:20 am37 °FSunny.3 mph75%30.09 "Hg10 mi
9:50 am37 °FSunny.3 mph75%30.09 "Hg10 mi
10:20 am39 °FPassing clouds.3 mph70%30.09 "HgN/A
10:50 am39 °FSunny.6 mph65%30.09 "Hg10 mi
11:20 am39 °FSunny.8 mph70%30.09 "Hg10 mi
11:50 am39 °FSunny.8 mph75%30.09 "Hg10 mi
12:20 pm39 °FSunny.10 mph65%30.07 "Hg10 mi
12:50 pm41 °FSunny.10 mph66%30.07 "Hg10 mi
1:20 pm41 °FSunny.12 mph66%30.07 "Hg10 mi
2:20 pm41 °FSunny.13 mph66%30.07 "Hg10 mi
3:20 pm45 °FSunny.9 mph42%30.04 "Hg10 mi
4:20 pm45 °FPassing clouds.6 mph42%30.04 "HgN/A
4:50 pm45 °FPassing clouds.6 mph39%30.01 "HgN/A
5:50 pm45 °FPassing clouds.6 mph34%30.01 "HgN/A
6:50 pm45 °FSunny.10 mph46%29.98 "Hg10 mi
7:20 pm43 °FSunny.9 mph49%29.98 "Hg10 mi
7:50 pm43 °FSunny.8 mph57%29.98 "Hg10 mi
8:20 pm41 °FSunny.6 mph61%29.98 "Hg10 mi
8:50 pm41 °FPassing clouds.5 mph61%29.98 "HgN/A
9:20 pm41 °FSunny.3 mph57%29.98 "Hg10 mi
9:50 pm39 °FSunny.5 mph61%29.98 "Hg10 mi
10:20 pm37 °FPassing clouds.5 mph60%29.98 "HgN/A
10:50 pm37 °FClear.5 mph60%29.98 "Hg10 mi
11:20 pm36 °FClear.3 mph65%29.95 "Hg10 mi
11:50 pm36 °FPassing clouds.3 mph65%29.95 "HgN/A
Weather by CustomWeather, © 2021

See weather overview